Lupton, Michigan
Current Conditions -  °F | °C
As of 5:33 PM on Friday 31 Oct 2014 (Local Time) from KOSC Reporting Station
Light Snow Light Snow  
Wind Chill: 19°   Ceiling: 1100
Heat Index: 32°   Visibility: 1.2mi
Dew Point: 32°   Wind: 24mph
Humidity: 97%   Direction: 360°N
Pressure: 30.13"   Gusts: 33mph
Location:  44.43°N, 84.03°W
Report Text: KOSC 312133Z AUTO 36021G29KT 1 1/4SM -SN BKN011 OVC016 00/00 A3013 RMK AO2 T00021002
Loading
Personal Weather Stations






























Interactive Weather Map New forecast layout! Learn more

10-Day Weather Forecast

Advertisements
Track Severe Weather on mobile